Time;durP1;ratioP1;P1;durP2;ratioP2;P2;SDS_P1;SDS_P2;PMS_P1;PMS_P2;Temp;Humidity;BMP_temperature;BMP_pressure;BME280_temperature;BME280_humidity;BME280_pressure;Samples;Min_cycle;Max_cycle;Signal;HPM_P1;HPM_P2
2022/10/05 00:00:55;;;;;;;8.05;2.20;;;15.50;99.90;;;;;;6237794;22;20017;-79
2022/10/05 00:03:24;;;;;;;6.57;1.80;;;15.60;99.90;;;;;;6265435;22;20027;-79
2022/10/05 00:05:49;;;;;;;6.57;2.10;;;15.60;99.90;;;;;;6238423;22;20051;-79
2022/10/05 00:08:22;;;;;;;5.32;1.83;;;15.60;99.90;;;;;;6187506;22;20051;-79
2022/10/05 00:10:48;;;;;;;4.78;1.75;;;15.60;99.90;;;;;;6265538;22;20022;-79
2022/10/05 00:13:20;;;;;;;4.88;2.08;;;15.60;99.90;;;;;;6264359;22;20019;-79
2022/10/05 00:15:47;;;;;;;4.40;2.20;;;15.60;99.90;;;;;;6238702;22;20098;-79
2022/10/05 00:18:19;;;;;;;4.38;2.00;;;15.60;99.90;;;;;;6238087;22;20042;-79
2022/10/05 00:20:46;;;;;;;7.50;2.35;;;15.60;99.90;;;;;;6236954;22;20012;-79
2022/10/05 00:23:25;;;;;;;6.47;2.20;;;15.60;99.90;;;;;;6237959;22;20024;-79
2022/10/05 00:25:51;;;;;;;4.85;1.90;;;15.50;99.90;;;;;;6239673;22;20084;-79
2022/10/05 00:28:29;;;;;;;3.85;1.88;;;15.50;99.90;;;;;;6249186;22;20020;-79
2022/10/05 00:30:57;;;;;;;4.50;2.00;;;15.50;99.90;;;;;;6245290;22;20024;-79
2022/10/05 00:33:23;;;;;;;4.88;2.20;;;15.50;99.90;;;;;;6219415;22;20023;-79
2022/10/05 00:35:49;;;;;;;5.68;1.67;;;15.50;99.90;;;;;;6266567;22;20016;-79
2022/10/05 00:38:18;;;;;;;6.03;1.83;;;15.50;99.90;;;;;;6240683;22;20081;-80
2022/10/05 00:41:06;;;;;;;6.50;2.00;;;15.50;99.90;;;;;;6215565;22;20099;-80
2022/10/05 00:43:40;;;;;;;6.18;1.95;;;15.50;99.90;;;;;;6241054;22;20019;-80
2022/10/05 00:46:24;;;;;;;4.72;2.00;;;15.50;99.90;;;;;;6265204;22;20390;-80
2022/10/05 00:48:59;;;;;;;5.20;2.30;;;15.50;99.90;;;;;;6266164;22;20029;-80
2022/10/05 00:51:30;;;;;;;6.67;2.03;;;15.50;99.90;;;;;;6241542;22;20023;-80
2022/10/05 00:54:26;;;;;;;4.43;2.40;;;15.50;99.90;;;;;;6266671;22;20023;-80
2022/10/05 00:56:55;;;;;;;;;;;15.50;99.90;;;;;;6265592;22;20704;-80
2022/10/05 00:59:39;;;;;;;5.55;2.10;;;15.50;99.90;;;;;;6240551;22;19962;-80
2022/10/05 01:02:18;;;;;;;6.95;2.10;;;15.50;99.90;;;;;;6240142;22;20068;-80
2022/10/05 01:04:49;;;;;;;4.13;1.98;;;15.50;99.90;;;;;;6240863;22;20097;-80
2022/10/05 01:07:28;;;;;;;6.53;2.20;;;15.50;99.90;;;;;;6239535;22;20493;-80
2022/10/05 01:10:03;;;;;;;5.82;2.20;;;15.50;99.90;;;;;;6241274;22;20020;-80
2022/10/05 01:12:40;;;;;;;6.50;2.10;;;15.50;99.90;;;;;;6239699;22;20531;-80
2022/10/05 01:15:12;;;;;;;4.78;2.13;;;15.50;99.90;;;;;;6240438;22;20131;-80
2022/10/05 01:17:53;;;;;;;8.38;2.35;;;15.50;99.90;;;;;;6266067;22;20027;-80
2022/10/05 01:20:25;;;;;;;6.00;2.13;;;15.50;99.90;;;;;;6239768;22;20024;-80
2022/10/05 01:23:26;;;;;;;6.05;2.25;;;15.50;99.90;;;;;;6266263;22;20064;-80
2022/10/05 01:25:57;;;;;;;5.90;2.63;;;15.50;99.90;;;;;;6240481;22;20296;-80
2022/10/05 01:28:27;;;;;;;4.40;2.28;;;15.50;99.90;;;;;;6268209;22;20042;-80
2022/10/05 01:31:27;;;;;;;4.85;2.50;;;15.50;99.90;;;;;;6266138;22;20407;-80
2022/10/05 01:34:25;;;;;;;4.25;2.35;;;15.40;99.90;;;;;;6240231;22;20028;-80
2022/10/05 01:37:08;;;;;;;5.15;2.15;;;15.40;99.90;;;;;;6214673;22;20074;-79
2022/10/05 01:40:02;;;;;;;5.50;2.90;;;15.40;99.90;;;;;;6266954;22;20011;-80
2022/10/05 01:42:50;;;;;;;4.43;2.03;;;15.30;99.90;;;;;;6240600;22;20074;-80
2022/10/05 01:45:41;;;;;;;3.25;2.20;;;15.30;99.90;;;;;;6263720;22;20296;-80
2022/10/05 01:48:15;;;;;;;6.15;2.20;;;15.30;99.90;;;;;;6239703;22;20015;-80
2022/10/05 01:51:00;;;;;;;3.55;2.15;;;15.30;99.90;;;;;;6239969;22;20055;-79
2022/10/05 01:53:55;;;;;;;7.07;2.63;;;15.30;99.90;;;;;;6266086;22;20016;-79
2022/10/05 01:56:49;;;;;;;6.85;2.40;;;15.40;99.90;;;;;;6244138;22;20054;-79
2022/10/05 01:59:17;;;;;;;4.75;2.13;;;15.40;99.90;;;;;;6265162;22;20070;-79
2022/10/05 02:01:51;;;;;;;3.30;1.95;;;15.40;99.90;;;;;;6264558;22;20682;-79
2022/10/05 02:04:28;;;;;;;6.18;2.10;;;15.40;99.90;;;;;;6239590;22;20020;-79
2022/10/05 02:06:54;;;;;;;3.95;2.03;;;15.40;99.90;;;;;;6240635;22;20015;-79
2022/10/05 02:09:27;;;;;;;5.78;2.53;;;15.40;99.90;;;;;;6265628;22;20020;-80
2022/10/05 02:12:11;;;;;;;5.20;2.15;;;15.40;99.90;;;;;;6239406;22;20242;-79
2022/10/05 02:14:43;;;;;;;2.67;1.83;;;15.40;99.90;;;;;;6240403;22;20045;-79
2022/10/05 02:17:35;;;;;;;4.82;2.30;;;15.30;99.90;;;;;;6265200;22;20019;-80
2022/10/05 02:20:07;;;;;;;3.67;1.88;;;15.40;99.90;;;;;;6258065;22;20015;-80
2022/10/05 02:22:42;;;;;;;4.05;2.10;;;15.40;99.90;;;;;;6240327;22;20019;-80
2022/10/05 02:25:20;;;;;;;2.60;1.77;;;15.30;99.90;;;;;;6238319;22;20022;-80
2022/10/05 02:28:08;;;;;;;7.70;2.00;;;15.30;99.90;;;;;;6238234;22;20343;-80
2022/10/05 02:30:42;;;;;;;3.33;1.92;;;15.30;99.90;;;;;;6215299;22;20328;-80
2022/10/05 02:33:15;;;;;;;4.50;2.00;;;15.30;99.90;;;;;;6212504;22;20208;-80
2022/10/05 02:35:41;;;;;;;3.70;1.90;;;15.10;99.90;;;;;;6213521;22;20024;-80
2022/10/05 02:38:10;;;;;;;3.58;1.80;;;15.30;99.90;;;;;;6213606;22;20027;-80
2022/10/05 02:40:50;;;;;;;4.53;1.77;;;15.30;99.90;;;;;;6238717;22;20028;-80
2022/10/05 02:43:19;;;;;;;2.90;1.90;;;15.30;99.90;;;;;;6212948;22;20020;-79
2022/10/05 02:45:58;;;;;;;3.15;1.73;;;15.30;99.90;;;;;;6213145;22;20067;-80
2022/10/05 02:48:47;;;;;;;4.47;1.80;;;15.30;99.90;;;;;;6213806;22;20420;-79
2022/10/05 02:51:24;;;;;;;6.70;2.13;;;15.30;99.90;;;;;;6214180;22;20106;-79
2022/10/05 02:54:28;;;;;;;3.78;2.22;;;15.30;99.90;;;;;;6239871;22;20019;-80
2022/10/05 02:57:00;;;;;;;4.50;1.67;;;15.30;99.90;;;;;;6117578;23;20021;-79
2022/10/05 02:59:37;;;;;;;3.95;1.80;;;15.30;99.90;;;;;;6219990;22;20015;-80
2022/10/05 03:02:11;;;;;;;4.97;2.00;;;15.30;99.90;;;;;;6239214;22;20059;-79
2022/10/05 03:05:12;;;;;;;4.75;1.77;;;15.30;99.90;;;;;;6213590;22;20019;-80
2022/10/05 03:07:41;;;;;;;4.07;1.73;;;15.30;99.90;;;;;;6239368;22;20026;-80
2022/10/05 03:10:10;;;;;;;4.57;1.83;;;15.30;99.90;;;;;;6238416;22;20070;-80
2022/10/05 03:13:01;;;;;;;3.20;1.85;;;15.30;99.90;;;;;;6239630;22;20043;-79
2022/10/05 03:15:45;;;;;;;3.42;1.65;;;15.30;99.90;;;;;;6240051;22;20016;-80
2022/10/05 03:18:45;;;;;;;4.30;1.58;;;15.30;99.90;;;;;;6239693;22;20102;-80
2022/10/05 03:21:36;;;;;;;3.17;1.70;;;15.30;99.90;;;;;;6224361;22;20098;-80
2022/10/05 03:24:13;;;;;;;6.00;2.35;;;15.30;99.90;;;;;;6237458;22;20016;-80
2022/10/05 03:26:51;;;;;;;3.35;1.75;;;15.30;99.90;;;;;;6264652;22;20462;-80
2022/10/05 03:29:39;;;;;;;3.70;1.73;;;15.30;99.90;;;;;;6239664;22;20016;-80
2022/10/05 03:32:33;;;;;;;5.32;1.77;;;15.30;99.90;;;;;;6238605;22;20019;-79
2022/10/05 03:35:06;;;;;;;4.38;1.90;;;15.30;99.90;;;;;;6265421;22;20020;-79
2022/10/05 03:37:49;;;;;;;4.28;1.80;;;15.30;99.90;;;;;;6240467;22;20020;-79
2022/10/05 03:40:17;;;;;;;3.65;2.15;;;15.30;99.90;;;;;;6238978;22;20020;-80
2022/10/05 03:43:04;;;;;;;3.25;1.70;;;15.30;99.90;;;;;;6265235;22;20158;-80
2022/10/05 03:45:41;;;;;;;3.85;1.55;;;15.30;99.90;;;;;;6239506;22;20019;-79
2022/10/05 03:48:09;;;;;;;3.25;1.45;;;15.30;99.90;;;;;;6265240;22;20046;-80
2022/10/05 03:50:59;;;;;;;6.32;1.60;;;15.30;99.90;;;;;;6240203;22;20028;-79
2022/10/05 03:53:32;;;;;;;5.63;1.67;;;15.30;99.90;;;;;;6239897;22;20616;-80
2022/10/05 03:56:06;;;;;;;4.68;1.67;;;15.30;99.90;;;;;;6239068;22;20736;-80
2022/10/05 03:59:05;;;;;;;4.25;1.40;;;15.30;99.90;;;;;;6239915;22;20047;-79
2022/10/05 04:01:44;;;;;;;5.55;1.70;;;15.30;99.90;;;;;;6239675;22;20080;-80
2022/10/05 04:04:25;;;;;;;4.70;1.85;;;15.30;99.90;;;;;;6246838;22;20324;-80
2022/10/05 04:06:54;;;;;;;2.85;1.40;;;15.30;99.90;;;;;;6271633;22;20020;-80
2022/10/05 04:09:35;;;;;;;3.83;1.70;;;15.30;99.90;;;;;;6243973;22;20043;-80
2022/10/05 04:12:22;;;;;;;3.10;1.23;;;15.30;99.90;;;;;;6267403;22;20026;-80
2022/10/05 04:14:56;;;;;;;3.22;1.45;;;15.30;99.90;;;;;;6266702;22;20047;-79
2022/10/05 04:17:32;;;;;;;5.85;1.92;;;15.30;99.90;;;;;;6236076;22;20022;-79
2022/10/05 04:20:15;;;;;;;2.60;1.10;;;15.30;99.90;;;;;;6262029;22;20094;-79
2022/10/05 04:23:03;;;;;;;3.83;1.38;;;15.30;99.90;;;;;;6215830;22;20070;-80
2022/10/05 04:25:35;;;;;;;3.67;1.30;;;15.30;99.90;;;;;;6215142;22;20074;-80
2022/10/05 04:28:13;;;;;;;3.40;1.50;;;15.30;99.90;;;;;;6216816;22;20012;-81
2022/10/05 04:30:42;;;;;;;3.65;1.40;;;15.30;99.90;;;;;;6217263;22;20019;-79
2022/10/05 04:33:14;;;;;;;3.15;1.27;;;15.30;99.90;;;;;;6241421;22;20016;-79
2022/10/05 04:35:59;;;;;;;2.75;1.30;;;15.30;99.90;;;;;;6168906;22;20056;-81
2022/10/05 04:38:24;;;;;;;3.17;1.42;;;15.20;99.90;;;;;;6240487;22;20227;-80
2022/10/05 04:40:59;;;;;;;6.32;1.20;;;15.20;99.90;;;;;;6217591;22;20535;-80
2022/10/05 04:43:49;;;;;;;2.85;1.20;;;15.20;99.90;;;;;;6241852;22;20098;-80
2022/10/05 04:46:36;;;;;;;3.58;1.27;;;15.20;99.90;;;;;;6214987;22;20023;-80
2022/10/05 04:49:08;;;;;;;2.03;1.17;;;15.20;99.90;;;;;;6241665;22;20023;-81
2022/10/05 04:51:48;;;;;;;2.05;1.15;;;15.20;99.90;;;;;;6216182;22;20266;-80
2022/10/05 04:54:39;;;;;;;3.95;1.30;;;15.20;99.90;;;;;;6215729;22;20458;-80
2022/10/05 04:57:39;;;;;;;3.78;1.20;;;15.20;99.90;;;;;;6215847;22;20346;-81
2022/10/05 05:00:11;;;;;;;2.63;1.33;;;15.20;99.90;;;;;;6216198;22;20024;-80
2022/10/05 05:02:49;;;;;;;4.18;1.23;;;15.20;99.90;;;;;;6241552;22;20019;-81
2022/10/05 05:05:37;;;;;;;2.15;1.30;;;15.20;99.90;;;;;;6214922;22;20155;-79
2022/10/05 05:08:32;;;;;;;3.08;1.40;;;15.20;99.90;;;;;;6240990;22;20129;-80
2022/10/05 05:11:21;;;;;;;2.40;1.52;;;15.20;99.90;;;;;;6224756;22;20027;-81
2022/10/05 05:13:52;;;;;;;3.67;1.75;;;15.20;99.90;;;;;;6213323;22;20022;-80
2022/10/05 05:16:24;;;;;;;2.72;1.50;;;15.20;99.90;;;;;;6214611;22;20026;-79
2022/10/05 05:19:11;;;;;;;2.65;1.40;;;15.20;99.90;;;;;;6218978;22;20019;-80
2022/10/05 05:22:20;;;;;;;3.38;1.45;;;15.20;99.90;;;;;;6259772;22;20023;-79
2022/10/05 05:24:55;;;;;;;2.00;1.38;;;15.20;99.90;;;;;;6239930;22;20023;-81
2022/10/05 05:27:40;;;;;;;2.58;1.50;;;15.20;99.90;;;;;;6268846;22;20042;-80
2022/10/05 05:30:34;;;;;;;4.28;1.75;;;15.20;99.90;;;;;;6268486;22;20022;-81
2022/10/05 05:33:07;;;;;;;3.22;1.50;;;15.20;99.90;;;;;;6236096;22;20410;-81
2022/10/05 05:35:42;;;;;;;2.70;1.85;;;15.60;99.90;;;;;;6242099;22;20334;-81
2022/10/05 05:38:45;;;;;;;3.10;2.00;;;15.10;99.90;;;;;;6269548;22;20019;-80
2022/10/05 05:41:15;;;;;;;3.33;2.25;;;15.10;99.90;;;;;;6243348;22;20024;-81
2022/10/05 05:43:55;;;;;;;3.95;2.60;;;15.10;99.90;;;;;;6269344;22;20016;-81
2022/10/05 05:46:27;;;;;;;3.38;2.33;;;15.10;99.90;;;;;;6243021;22;20465;-81
2022/10/05 05:48:55;;;;;;;4.65;2.95;;;15.10;99.90;;;;;;6244142;22;20026;-81
2022/10/05 05:51:27;;;;;;;4.78;2.47;;;15.10;99.90;;;;;;6267622;22;20432;-80
2022/10/05 05:54:01;;;;;;;7.00;2.90;;;15.10;99.90;;;;;;6269230;22;20023;-80
2022/10/05 05:56:34;;;;;;;4.68;3.08;;;15.10;99.90;;;;;;6267990;22;20016;-80
2022/10/05 05:59:24;;;;;;;4.05;2.40;;;15.10;99.90;;;;;;6268744;22;20011;-80
2022/10/05 06:01:58;;;;;;;4.78;2.80;;;15.10;99.90;;;;;;6243788;22;20024;-80
2022/10/05 06:04:51;;;;;;;5.35;3.22;;;15.10;99.90;;;;;;6267802;22;20034;-80
2022/10/05 06:07:23;;;;;;;4.07;2.58;;;15.10;99.90;;;;;;6243983;22;20023;-80
2022/10/05 06:10:03;;;;;;;4.10;2.70;;;15.10;99.90;;;;;;6243659;22;20015;-80
2022/10/05 06:12:34;;;;;;;3.08;2.33;;;15.10;99.90;;;;;;6242719;22;20023;-80
2022/10/05 06:15:12;;;;;;;3.78;2.30;;;15.10;99.90;;;;;;6269784;22;20112;-80
2022/10/05 06:17:44;;;;;;;4.70;2.45;;;15.10;99.90;;;;;;6243843;22;20347;-79
2022/10/05 06:20:39;;;;;;;4.90;2.58;;;15.10;99.90;;;;;;6269340;22;20016;-80
2022/10/05 06:23:35;;;;;;;5.38;2.45;;;15.10;99.90;;;;;;6244264;22;20473;-79
2022/10/05 06:26:10;;;;;;;4.40;2.80;;;15.10;99.90;;;;;;6201911;22;20034;-79
2022/10/05 06:28:36;;;;;;;5.07;2.83;;;15.10;99.90;;;;;;6243825;22;20099;-80
2022/10/05 06:31:33;;;;;;;4.57;2.70;;;15.10;99.90;;;;;;6219024;22;20611;-80
2022/10/05 06:34:26;;;;;;;4.93;3.25;;;15.10;99.90;;;;;;6220164;22;20031;-81
2022/10/05 06:37:00;;;;;;;4.25;2.30;;;15.10;99.90;;;;;;6244606;22;20019;-80
2022/10/05 06:39:42;;;;;;;5.13;2.45;;;15.10;99.90;;;;;;6216770;22;20019;-80
2022/10/05 06:42:18;;;;;;;3.80;2.70;;;15.10;99.90;;;;;;6220263;22;20517;-81
2022/10/05 06:45:10;;;;;;;3.55;2.10;;;15.10;99.90;;;;;;6219743;22;20113;-80
2022/10/05 06:47:46;;;;;;;4.60;2.33;;;15.20;99.90;;;;;;6220473;22;20023;-81
2022/10/05 06:50:30;;;;;;;6.07;2.40;;;15.20;99.90;;;;;;6221253;22;20410;-81
2022/10/05 06:53:28;;;;;;;3.67;2.10;;;15.20;99.90;;;;;;6220064;22;20026;-80
2022/10/05 06:56:12;;;;;;;2.97;2.40;;;15.20;99.90;;;;;;6245467;22;20027;-80
2022/10/05 06:58:49;;;;;;;4.88;2.28;;;15.20;99.90;;;;;;6245298;22;20117;-80
2022/10/05 07:01:15;;;;;;;4.50;2.00;;;15.20;99.90;;;;;;6245148;22;20076;-80
2022/10/05 07:04:31;;;;;;;3.38;2.03;;;15.20;99.90;;;;;;6219698;22;20106;-80
2022/10/05 07:07:01;;;;;;;3.00;2.05;;;15.30;99.90;;;;;;6123716;23;20018;-80
2022/10/05 07:09:54;;;;;;;4.18;2.00;;;15.30;99.90;;;;;;6210753;22;20110;-81
2022/10/05 07:12:31;;;;;;;5.50;2.08;;;15.30;99.90;;;;;;6244884;22;20098;-80
2022/10/05 07:15:24;;;;;;;3.08;1.90;;;15.40;99.90;;;;;;6220316;22;20027;-80
2022/10/05 07:18:17;;;;;;;2.50;1.80;;;15.40;99.90;;;;;;6246439;22;20110;-80
2022/10/05 07:20:55;;;;;;;3.28;1.77;;;15.50;99.90;;;;;;6226059;22;20073;-80
2022/10/05 07:23:44;;;;;;;3.15;1.80;;;15.50;99.90;;;;;;6244963;22;20077;-80
2022/10/05 07:26:39;;;;;;;2.65;1.70;;;15.50;99.90;;;;;;6270610;22;20026;-80
2022/10/05 07:29:57;;;;;;;4.57;1.77;;;15.60;99.90;;;;;;6245853;22;20016;-80
2022/10/05 07:32:38;;;;;;;3.22;1.65;;;15.60;99.90;;;;;;6182380;23;20017;-80
2022/10/05 07:38:35;;;;;;;3.53;1.60;;;15.60;99.90;;;;;;6279552;22;20024;-80
2022/10/05 07:41:14;;;;;;;3.83;1.50;;;15.60;99.90;;;;;;6270655;22;20016;-80
2022/10/05 07:43:57;;;;;;;3.97;1.40;;;15.70;99.90;;;;;;6245346;22;20019;-80
2022/10/05 07:46:48;;;;;;;2.85;1.52;;;15.70;99.90;;;;;;6270836;22;20015;-79
2022/10/05 07:49:58;;;;;;;2.80;1.50;;;15.70;99.90;;;;;;6245343;22;20051;-80
2022/10/05 07:52:41;;;;;;;4.70;1.35;;;15.80;99.90;;;;;;6270768;22;20020;-80
2022/10/05 07:55:21;;;;;;;3.03;1.30;;;15.80;99.90;;;;;;6271066;22;20070;-80
2022/10/05 07:57:53;;;;;;;3.20;1.35;;;15.90;99.90;;;;;;6245952;22;20023;-80
2022/10/05 08:00:22;;;;;;;3.72;1.30;;;16.00;99.90;;;;;;6271988;22;20107;-79
2022/10/05 08:03:03;;;;;;;2.60;1.27;;;16.10;99.90;;;;;;6270978;22;20012;-81
2022/10/05 08:05:31;;;;;;;3.35;1.45;;;16.30;99.90;;;;;;6243651;22;20026;-80
2022/10/05 08:08:43;;;;;;;2.65;1.20;;;16.40;99.90;;;;;;6268412;22;20070;-80
2022/10/05 08:11:23;;;;;;;3.50;1.25;;;16.60;99.90;;;;;;6243336;22;20020;-79
2022/10/05 08:14:04;;;;;;;2.65;1.42;;;16.80;99.90;;;;;;6270548;22;20015;-80
2022/10/05 08:16:35;;;;;;;1.90;1.30;;;17.00;99.90;;;;;;6269651;22;20697;-79
2022/10/05 08:19:09;;;;;;;3.15;1.40;;;17.20;99.90;;;;;;6245819;22;20024;-81
2022/10/05 08:21:43;;;;;;;4.32;1.50;;;17.30;99.90;;;;;;6244115;22;20024;-80
2022/10/05 08:24:21;;;;;;;2.58;1.20;;;17.40;99.90;;;;;;6242729;22;20027;-79
2022/10/05 08:27:02;;;;;;;3.13;1.40;;;17.40;99.90;;;;;;6241861;22;20020;-80
2022/10/05 08:29:53;;;;;;;5.18;1.30;;;17.50;99.90;;;;;;6243049;22;20016;-79
2022/10/05 08:32:23;;;;;;;1.40;1.00;;;17.60;99.90;;;;;;6242600;22;20026;-80
2022/10/05 08:35:18;;;;;;;3.65;1.40;;;17.70;99.90;;;;;;6241177;22;20149;-80
2022/10/05 08:37:46;;;;;;;2.60;1.30;;;17.90;99.90;;;;;;6240806;22;20261;-80
2022/10/05 08:40:20;;;;;;;1.83;1.20;;;18.00;99.90;;;;;;6266689;22;20094;-80
2022/10/05 08:43:01;;;;;;;4.03;1.50;;;18.10;99.90;;;;;;6265629;22;20119;-79
2022/10/05 08:45:54;;;;;;;4.15;1.30;;;18.20;99.90;;;;;;6266914;22;20449;-79
2022/10/05 08:48:39;;;;;;;4.93;1.33;;;18.30;99.90;;;;;;6241481;22;20124;-80
2022/10/05 08:51:10;;;;;;;3.55;1.23;;;18.30;99.90;;;;;;6244097;22;20431;-80
2022/10/05 08:53:54;;;;;;;2.83;1.20;;;18.20;99.90;;;;;;6243239;22;20099;-80
2022/10/05 08:56:39;;;;;;;3.88;1.38;;;18.20;99.90;;;;;;6244260;22;20023;-79
2022/10/05 08:59:30;;;;;;;2.03;1.00;;;18.00;99.90;;;;;;6270507;22;20055;-79
2022/10/05 09:02:18;;;;;;;3.13;1.63;;;18.00;99.90;;;;;;6245822;22;20528;-79
2022/10/05 09:05:02;;;;;;;2.65;1.33;;;17.90;99.90;;;;;;6269618;22;20022;-80
2022/10/05 09:07:43;;;;;;;2.80;1.40;;;17.80;99.90;;;;;;6263971;22;20429;-79
2022/10/05 09:10:25;;;;;;;2.35;1.38;;;17.90;99.90;;;;;;6235796;22;20026;-80
2022/10/05 09:13:12;;;;;;;2.65;1.30;;;17.60;99.90;;;;;;6235878;22;20430;-80
2022/10/05 09:16:20;;;;;;;3.70;1.25;;;17.60;99.90;;;;;;6235152;22;20210;-79
2022/10/05 09:19:23;;;;;;;3.33;1.38;;;17.50;99.90;;;;;;6264588;22;20023;-79
2022/10/05 09:21:52;;;;;;;2.20;1.30;;;17.60;99.90;;;;;;6240636;22;20074;-79
2022/10/05 09:24:26;;;;;;;3.88;1.88;;;17.60;99.90;;;;;;6261479;22;20786;-79
2022/10/05 09:27:15;;;;;;;2.55;1.40;;;17.70;99.90;;;;;;6261532;22;20500;-80
2022/10/05 09:29:59;;;;;;;5.32;1.70;;;17.80;99.90;;;;;;6248838;22;20339;-81
2022/10/05 09:32:30;;;;;;;6.88;2.10;;;18.00;99.90;;;;;;6235581;22;20020;-80
2022/10/05 09:35:21;;;;;;;2.63;1.65;;;18.20;99.90;;;;;;6235707;22;20349;-80
2022/10/05 09:38:07;;;;;;;2.20;1.20;;;18.30;99.90;;;;;;6238107;22;20012;-80
2022/10/05 09:41:20;;;;;;;3.15;1.38;;;18.50;99.90;;;;;;6263404;22;20016;-79
2022/10/05 09:43:54;;;;;;;3.60;1.60;;;18.50;99.90;;;;;;6174088;23;20397;-80
2022/10/05 09:46:28;;;;;;;3.10;1.77;;;18.60;99.90;;;;;;6230496;22;20019;-80
2022/10/05 09:49:03;;;;;;;3.40;1.45;;;18.50;99.90;;;;;;6242146;22;20016;-79
2022/10/05 09:51:43;;;;;;;3.33;1.50;;;18.50;99.90;;;;;;6265350;22;20107;-79
2022/10/05 09:54:28;;;;;;;3.30;1.58;;;18.50;99.90;;;;;;6243259;22;20072;-80
2022/10/05 09:57:58;;;;;;;2.65;1.48;;;18.50;99.90;;;;;;6241985;22;20023;-80
2022/10/05 10:00:41;;;;;;;4.18;1.70;;;18.40;99.90;;;;;;6119971;23;20452;-80
2022/10/05 10:03:45;;;;;;;6.10;1.67;;;18.50;99.90;;;;;;6152988;23;20020;-80
2022/10/05 10:06:52;;;;;;;3.28;1.50;;;18.50;99.90;;;;;;6240692;22;20459;-80
2022/10/05 10:09:18;;;;;;;3.67;1.67;;;18.40;99.90;;;;;;6220312;22;20023;-81
2022/10/05 10:12:01;;;;;;;4.32;1.40;;;18.50;99.90;;;;;;6263416;22;20176;-80
2022/10/05 10:15:06;;;;;;;4.10;1.40;;;18.40;99.90;;;;;;6268291;22;20773;-80
2022/10/05 10:17:50;;;;;;;5.38;1.58;;;18.40;99.90;;;;;;6267684;22;20020;-80
2022/10/05 10:20:27;;;;;;;6.68;1.63;;;18.50;99.90;;;;;;6243043;22;20431;-79
2022/10/05 10:23:11;;;;;;;5.82;1.50;;;18.50;99.90;;;;;;6242005;22;20677;-79
2022/10/05 10:25:55;;;;;;;2.25;1.45;;;18.50;99.90;;;;;;6216190;22;20026;-80
2022/10/05 10:28:34;;;;;;;5.88;1.40;;;18.40;99.90;;;;;;6243517;22;20011;-81
2022/10/05 10:31:21;;;;;;;3.38;1.60;;;18.40;99.90;;;;;;6242226;22;20011;-81
2022/10/05 10:33:58;;;;;;;3.67;1.52;;;18.40;99.90;;;;;;6217620;22;20051;-81
2022/10/05 10:36:49;;;;;;;4.10;1.60;;;18.30;99.90;;;;;;6244145;22;20057;-81
2022/10/05 10:39:39;;;;;;;3.85;1.67;;;18.30;99.90;;;;;;6242993;22;20095;-81
2022/10/05 10:42:47;;;;;;;4.55;1.60;;;18.20;99.90;;;;;;6242574;22;20059;-81
2022/10/05 10:45:27;;;;;;;4.88;2.05;;;18.20;99.90;;;;;;6160786;22;20073;-81
2022/10/05 10:48:06;;;;;;;2.80;1.27;;;18.10;99.90;;;;;;6217320;22;20111;-81
2022/10/05 10:51:03;;;;;;;1.77;1.20;;;18.10;99.90;;;;;;6218659;22;20686;-80
2022/10/05 10:53:47;;;;;;;6.25;1.58;;;18.10;99.90;;;;;;6242020;22;20081;-79
2022/10/05 10:56:46;;;;;;;2.83;1.60;;;18.10;99.90;;;;;;6241974;22;20440;-81
2022/10/05 10:59:49;;;;;;;2.55;1.23;;;18.00;99.90;;;;;;6243036;22;20020;-80
2022/10/05 11:02:26;;;;;;;3.25;1.20;;;17.90;99.90;;;;;;6217686;22;20024;-79
2022/10/05 11:05:16;;;;;;;4.22;1.42;;;17.90;99.90;;;;;;6242494;22;20016;-80
2022/10/05 11:08:04;;;;;;;3.50;1.45;;;17.80;99.90;;;;;;6216766;22;20069;-79
2022/10/05 11:10:54;;;;;;;3.92;1.20;;;17.80;99.90;;;;;;6250809;22;20019;-79
2022/10/05 11:13:51;;;;;;;2.40;1.10;;;17.70;99.90;;;;;;6250393;22;20090;-79
2022/10/05 11:16:25;;;;;;;3.00;1.20;;;17.60;99.90;;;;;;6241262;22;20335;-78
2022/10/05 11:18:53;;;;;;;3.17;1.45;;;17.60;99.90;;;;;;6215707;22;20043;-79
2022/10/05 11:21:29;;;;;;;2.72;1.33;;;17.50;99.90;;;;;;6228810;22;20026;-79
2022/10/05 11:24:00;;;;;;;5.15;1.45;;;17.50;99.90;;;;;;6266568;22;20015;-79
2022/10/05 11:27:02;;;;;;;3.33;1.50;;;17.40;99.90;;;;;;6240646;22;20077;-78
2022/10/05 11:30:00;;;;;;;2.70;1.60;;;17.40;99.90;;;;;;6267765;22;20030;-78
2022/10/05 11:32:41;;;;;;;2.88;1.45;;;17.40;99.90;;;;;;6238946;22;20092;-79
2022/10/05 11:35:31;;;;;;;5.03;1.60;;;17.40;99.90;;;;;;6238496;22;20158;-80
2022/10/05 11:38:20;;;;;;;1.90;0.95;;;17.30;99.90;;;;;;6236830;22;20778;-78
2022/10/05 11:41:10;;;;;;;4.38;1.30;;;17.30;99.90;;;;;;6261850;22;20015;-79
2022/10/05 11:43:45;;;;;;;3.08;1.20;;;17.30;99.90;;;;;;6237795;22;20127;-78
2022/10/05 11:46:31;;;;;;;1.98;1.17;;;17.30;99.90;;;;;;6264591;22;20324;-81
2022/10/05 11:49:02;;;;;;;4.03;1.33;;;17.20;99.90;;;;;;6247957;22;20037;-80
2022/10/05 11:51:46;;;;;;;4.25;1.10;;;17.20;99.90;;;;;;6241520;22;20081;-79
2022/10/05 11:54:33;;;;;;;2.80;1.20;;;17.20;99.90;;;;;;6242062;22;20390;-79
2022/10/05 11:57:15;;;;;;;3.05;1.20;;;17.20;99.90;;;;;;6240690;22;20016;-80
2022/10/05 12:00:05;;;;;;;5.07;1.30;;;17.20;99.90;;;;;;6266571;22;20705;-79
2022/10/05 12:02:49;;;;;;;4.75;1.40;;;17.10;99.90;;;;;;6266990;22;20110;-80
2022/10/05 12:05:35;;;;;;;3.20;1.20;;;17.10;99.90;;;;;;6240974;22;20023;-79
2022/10/05 12:08:23;;;;;;;6.07;1.33;;;17.10;99.90;;;;;;6241272;22;20024;-80
2022/10/05 12:11:01;;;;;;;4.30;1.70;;;17.20;99.90;;;;;;6267692;22;20024;-79
2022/10/05 12:14:20;;;;;;;2.35;1.10;;;17.10;99.90;;;;;;6242324;22;20020;-79
2022/10/05 12:16:58;;;;;;;4.18;1.10;;;17.10;99.90;;;;;;6152234;23;20040;-79
2022/10/05 12:19:32;;;;;;;5.45;1.08;;;17.10;99.90;;;;;;6233185;22;20016;-79
2022/10/05 12:22:02;;;;;;;5.90;1.02;;;17.10;99.90;;;;;;6266354;22;20035;-79
2022/10/05 12:24:34;;;;;;;4.03;1.00;;;17.10;99.90;;;;;;6267166;22;20042;-79
2022/10/05 12:27:09;;;;;;;2.25;0.80;;;17.10;99.90;;;;;;6267989;22;20019;-79
2022/10/05 12:30:03;;;;;;;2.13;1.00;;;17.20;99.90;;;;;;6270249;22;20481;-79
2022/10/05 12:33:07;;;;;;;4.30;1.85;;;17.10;99.90;;;;;;6269228;22;20019;-83
2022/10/05 12:35:55;;;;;;;2.55;1.17;;;17.10;99.90;;;;;;6219860;22;20015;-79
2022/10/05 12:38:39;;;;;;;4.50;1.20;;;17.20;99.90;;;;;;6246447;22;20343;-79
2022/10/05 12:41:27;;;;;;;4.78;1.25;;;17.20;99.90;;;;;;6271225;22;20051;-78
2022/10/05 12:44:13;;;;;;;3.05;1.17;;;17.30;99.90;;;;;;6269933;22;20093;-79
2022/10/05 12:47:11;;;;;;;4.25;1.17;;;17.30;99.90;;;;;;6271915;22;20109;-80
2022/10/05 12:49:42;;;;;;;3.53;1.15;;;17.30;99.90;;;;;;6272862;22;20011;-79
2022/10/05 12:52:37;;;;;;;2.58;1.02;;;17.40;99.90;;;;;;6270775;22;20088;-79
2022/10/05 12:55:34;;;;;;;7.43;1.40;;;17.50;99.90;;;;;;6242068;22;20651;-80
2022/10/05 12:58:16;;;;;;;3.72;1.17;;;17.60;99.90;;;;;;6268571;22;20081;-80
2022/10/05 13:01:05;;;;;;;2.55;1.10;;;18.10;99.90;;;;;;6242131;22;20030;-80
2022/10/05 13:03:48;;;;;;;2.45;1.17;;;18.80;99.90;;;;;;6265855;22;20058;-79
2022/10/05 13:06:28;;;;;;;3.20;1.10;;;19.30;99.90;;;;;;6266471;22;20019;-80
2022/10/05 13:09:13;;;;;;;3.05;1.13;;;19.90;99.90;;;;;;6238527;22;20107;-80
2022/10/05 13:11:54;;;;;;;4.50;1.20;;;20.60;99.90;;;;;;6241196;22;20031;-80
2022/10/05 13:14:42;;;;;;;2.15;1.20;;;21.30;99.90;;;;;;6245985;22;20438;-82
2022/10/05 13:17:39;;;;;;;4.03;1.42;;;21.80;99.90;;;;;;6245569;22;20073;-81
2022/10/05 13:20:40;;;;;;;2.70;1.30;;;22.30;99.90;;;;;;6245896;22;20536;-81
2022/10/05 13:23:30;;;;;;;5.47;1.45;;;22.60;99.90;;;;;;6214594;22;20023;-82
2022/10/05 13:26:16;;;;;;;5.22;1.40;;;22.20;99.90;;;;;;6242945;22;20019;-81
2022/10/05 13:29:08;;;;;;;3.63;1.25;;;21.60;99.90;;;;;;6246131;22;20019;-80
2022/10/05 13:31:48;;;;;;;3.45;1.23;;;21.20;99.90;;;;;;6218989;22;20024;-79
2022/10/05 13:34:50;;;;;;;3.92;1.40;;;21.10;99.90;;;;;;6243205;22;20090;-80
2022/10/05 13:37:27;;;;;;;3.55;1.67;;;20.90;99.90;;;;;;6203742;22;20046;-80
2022/10/05 13:40:18;;;;;;;6.97;1.63;;;20.60;99.90;;;;;;6216418;22;20457;-79
2022/10/05 13:43:09;;;;;;;5.75;1.52;;;20.30;99.90;;;;;;6244159;22;20100;-80
2022/10/05 13:45:51;;;;;;;2.08;1.20;;;20.00;99.90;;;;;;6219320;22;20028;-80
2022/10/05 13:48:23;;;;;;;2.70;1.40;;;19.70;99.90;;;;;;6219070;22;20043;-80
2022/10/05 13:51:14;;;;;;;4.90;2.00;;;19.50;99.90;;;;;;6219593;22;20031;-81
2022/10/05 13:54:24;;;;;;;2.63;1.30;;;20.00;99.90;;;;;;6218201;22;20030;-81
2022/10/05 13:57:22;;;;;;;3.75;1.17;;;19.20;99.90;;;;;;6211090;22;20085;-80
2022/10/05 13:59:53;;;;;;;3.45;1.38;;;19.00;99.90;;;;;;6218292;22;20106;-80
2022/10/05 14:02:28;;;;;;;3.38;1.55;;;18.80;99.90;;;;;;6219747;22;20016;-80
2022/10/05 14:05:00;;;;;;;4.88;1.52;;;18.70;99.90;;;;;;6217984;22;20020;-80
2022/10/05 14:07:37;;;;;;;3.90;1.42;;;18.60;99.90;;;;;;6218953;22;20015;-80
2022/10/05 14:10:10;;;;;;;4.15;1.48;;;18.40;99.90;;;;;;6243534;22;20024;-80